Time;durP1;ratioP1;P1;durP2;ratioP2;P2;SDS_P1;SDS_P2;PMS_P1;PMS_P2;Temp;Humidity;BMP_temperature;BMP_pressure;BME280_temperature;BME280_humidity;BME280_pressure;Samples;Min_cycle;Max_cycle;Signal;HPM_P1;HPM_P2
2022/03/10 00:00:15;;;;;;;26.80;17.95;;;;;;;6.83;46.88;102245.59;5076744;28;20044;-45
2022/03/10 00:02:43;;;;;;;28.05;17.35;;;;;;;6.83;46.93;102245.59;5076166;28;20076;-46
2022/03/10 00:05:15;;;;;;;27.05;18.50;;;;;;;6.85;47.32;102244.56;5074769;28;20086;-46
2022/03/10 00:07:43;;;;;;;27.75;18.58;;;;;;;6.80;46.77;102254.13;5076566;28;20044;-47
2022/03/10 00:10:11;;;;;;;29.42;18.02;;;;;;;6.72;47.52;102245.38;5059808;28;20051;-47
2022/03/10 00:12:53;;;;;;;29.05;19.80;;;;;;;6.70;47.28;102253.72;5039191;28;20053;-45
2022/03/10 00:15:23;;;;;;;27.75;19.63;;;;;;;6.66;47.46;102257.88;5055666;28;20048;-46
2022/03/10 00:17:52;;;;;;;27.85;18.88;;;;;;;6.65;48.02;102258.09;5065062;28;20106;-47
2022/03/10 00:20:20;;;;;;;26.35;18.63;;;;;;;6.62;48.35;102256.63;5056160;28;20049;-45
2022/03/10 00:22:52;;;;;;;29.23;18.63;;;;;;;6.61;48.36;102258.50;5056280;28;20558;-45
2022/03/10 00:25:21;;;;;;;26.05;18.60;;;;;;;6.58;48.66;102260.78;5052865;28;20055;-45
2022/03/10 00:27:49;;;;;;;28.58;18.65;;;;;;;6.57;48.34;102257.25;5075901;28;20053;-45
2022/03/10 00:30:18;;;;;;;24.85;17.65;;;;;;;6.58;48.55;102253.47;5062736;28;20044;-45
2022/03/10 00:32:51;;;;;;;30.90;18.65;;;;;;;6.56;48.25;102255.56;5056079;28;20041;-44
2022/03/10 00:35:22;;;;;;;29.65;19.75;;;;;;;6.55;48.40;102259.31;5056255;28;20071;-46
2022/03/10 00:37:57;;;;;;;23.77;17.63;;;;;;;6.55;48.71;102258.50;5055920;28;20103;-45
2022/03/10 00:40:25;;;;;;;26.92;18.25;;;;;;;6.51;48.68;102257.22;5055970;28;20135;-46
2022/03/10 00:42:53;;;;;;;25.45;18.25;;;;;;;6.49;48.75;102262.00;5070749;28;20044;-46
2022/03/10 00:45:21;;;;;;;28.58;18.75;;;;;;;6.46;48.76;102262.44;5073695;28;20067;-47
2022/03/10 00:47:51;;;;;;;29.90;19.02;;;;;;;6.42;49.11;102259.28;5075840;28;20083;-46
2022/03/10 00:50:20;;;;;;;27.05;18.30;;;;;;;6.39;48.75;102263.22;5037220;28;20037;-45
2022/03/10 00:52:48;;;;;;;26.73;17.98;;;;;;;6.36;48.93;102263.66;5055755;28;20423;-46
2022/03/10 00:55:18;;;;;;;27.52;17.90;;;;;;;6.35;49.36;102261.13;5065524;28;20063;-46
2022/03/10 00:57:47;;;;;;;25.90;17.77;;;;;;;6.35;49.07;102267.41;5053899;28;20048;-46
2022/03/10 01:00:17;;;;;;;23.98;18.35;;;;;;;6.33;49.22;102264.06;5073890;28;20047;-46
2022/03/10 01:02:44;;;;;;;25.15;18.98;;;;;;;6.32;49.14;102266.97;5075100;28;20051;-46
2022/03/10 01:05:13;;;;;;;24.92;17.58;;;;;;;6.30;49.12;102269.91;5057667;28;20051;-45
2022/03/10 01:07:41;;;;;;;30.58;17.95;;;;;;;6.28;49.35;102266.56;5071865;28;20064;-47
2022/03/10 01:10:12;;;;;;;24.40;17.90;;;;;;;6.27;49.78;102270.28;5075518;28;20053;-46
2022/03/10 01:12:42;;;;;;;27.15;17.98;;;;;;;6.26;49.61;102265.09;5075471;28;20049;-46
2022/03/10 01:15:19;;;;;;;24.85;17.45;;;;;;;6.26;49.61;102259.69;5058269;28;20143;-48
2022/03/10 01:17:47;;;;;;;28.75;18.15;;;;;;;6.25;49.67;102261.53;5057215;28;20407;-47
2022/03/10 01:20:17;;;;;;;24.80;17.55;;;;;;;6.23;49.74;102257.34;5074530;28;20104;-45
2022/03/10 01:22:45;;;;;;;23.95;17.73;;;;;;;6.24;49.82;102262.56;5057939;28;20041;-44
2022/03/10 01:25:18;;;;;;;26.25;17.88;;;;;;;6.24;49.88;102259.88;5055124;28;20045;-46
2022/03/10 01:27:46;;;;;;;23.98;17.75;;;;;;;6.27;49.97;102262.16;5038005;28;20051;-46
2022/03/10 01:30:14;;;;;;;27.48;18.83;;;;;;;6.27;49.43;102259.47;5055964;28;20128;-43
2022/03/10 01:32:43;;;;;;;25.35;16.65;;;;;;;6.26;49.35;102263.22;5051117;28;20051;-41
2022/03/10 01:35:12;;;;;;;25.45;18.20;;;;;;;6.21;49.57;102254.88;5057000;28;20033;-42
2022/03/10 01:37:41;;;;;;;28.15;17.90;;;;;;;6.18;49.74;102258.81;5074863;28;20048;-44
2022/03/10 01:40:14;;;;;;;27.15;17.00;;;;;;;6.18;49.34;102256.13;5061570;28;20051;-44
2022/03/10 01:42:42;;;;;;;25.27;17.92;;;;;;;6.12;49.56;102256.09;5054516;28;20045;-43
2022/03/10 01:45:10;;;;;;;24.70;16.80;;;;;;;6.06;49.61;102259.59;5049490;28;20152;-45
2022/03/10 01:47:38;;;;;;;25.63;17.45;;;;;;;6.03;50.00;102251.88;5057027;28;20045;-42
2022/03/10 01:50:07;;;;;;;24.20;16.88;;;;;;;6.00;49.93;102255.84;5047633;28;20041;-44
2022/03/10 01:52:35;;;;;;;28.35;16.70;;;;;;;6.01;50.04;102259.38;5057006;28;20047;-43
2022/03/10 01:55:03;;;;;;;24.13;17.23;;;;;;;5.96;50.01;102255.41;5056428;28;20041;-42
2022/03/10 01:57:31;;;;;;;25.73;16.63;;;;;;;5.95;50.29;102251.03;5073129;28;20055;-45
2022/03/10 01:59:59;;;;;;;26.48;16.23;;;;;;;5.95;50.20;102251.03;5052650;28;20144;-43
2022/03/10 02:02:27;;;;;;;24.70;17.42;;;;;;;5.94;50.22;102246.66;5054123;28;20056;-43
2022/03/10 02:04:56;;;;;;;22.83;16.95;;;;;;;5.93;50.66;102247.66;5072539;28;20037;-45
2022/03/10 02:10:17;;;;;;;24.55;16.80;;;;;;;5.95;50.56;102256.44;5072297;28;20074;-47
2022/03/10 02:12:49;;;;;;;24.38;16.48;;;;;;;5.94;50.43;102256.63;5073999;28;20450;-45
2022/03/10 02:18:09;;;;;;;29.35;18.02;;;;;;;5.91;50.51;102244.31;5039116;28;20045;-47
2022/03/10 02:20:38;;;;;;;28.98;18.33;;;;;;;5.91;50.64;102238.91;5039574;28;20041;-46
2022/03/10 02:23:08;;;;;;;26.95;18.63;;;;;;;5.89;50.53;102240.13;5060014;28;20505;-47
2022/03/10 02:25:37;;;;;;;26.33;17.85;;;;;;;5.88;50.78;102243.91;5039487;28;20040;-46
2022/03/10 02:28:05;;;;;;;28.88;17.95;;;;;;;5.87;50.63;102247.63;5067727;28;20037;-45
2022/03/10 02:30:34;;;;;;;25.15;17.80;;;;;;;5.86;50.69;102245.97;5053527;28;20045;-46
2022/03/10 02:33:02;;;;;;;28.05;17.52;;;;;;;5.79;50.55;102242.41;5035986;28;20521;-46
2022/03/10 02:35:30;;;;;;;25.60;17.65;;;;;;;5.74;50.88;102243.00;5035660;28;20510;-43
2022/03/10 02:37:57;;;;;;;22.95;16.40;;;;;;;5.70;50.99;102247.97;5057426;28;20042;-44
2022/03/10 02:40:26;;;;;;;23.08;16.65;;;;;;;5.69;51.12;102245.47;5073087;28;20503;-44
2022/03/10 02:42:54;;;;;;;26.63;17.52;;;;;;;5.69;51.26;102237.34;5055946;28;20037;-44
2022/03/10 02:45:23;;;;;;;27.45;17.48;;;;;;;5.71;51.44;102244.22;5073055;28;20056;-43
2022/03/10 02:47:52;;;;;;;25.15;18.08;;;;;;;5.73;51.02;102241.34;5055908;28;20044;-43
2022/03/10 02:50:23;;;;;;;24.30;17.63;;;;;;;5.68;51.42;102246.53;5054432;28;20775;-45
2022/03/10 02:52:51;;;;;;;23.10;16.95;;;;;;;5.63;51.40;102241.69;5053751;28;20070;-45
2022/03/10 02:55:19;;;;;;;28.90;17.73;;;;;;;5.61;51.75;102242.94;5036402;28;20037;-48
2022/03/10 02:57:47;;;;;;;26.00;17.92;;;;;;;5.61;51.71;102242.94;5035791;28;20033;-49
2022/03/10 03:00:16;;;;;;;29.30;18.08;;;;;;;5.61;51.46;102249.19;5036706;28;20595;-46
2022/03/10 03:02:43;;;;;;;27.25;17.65;;;;;;;5.59;51.59;102250.41;5070610;28;20052;-47
2022/03/10 03:05:15;;;;;;;23.70;18.13;;;;;;;5.57;51.90;102250.59;5055702;28;20114;-47
2022/03/10 03:07:44;;;;;;;27.83;18.58;;;;;;;5.58;51.60;102251.44;5072069;28;20037;-47
2022/03/10 03:10:12;;;;;;;26.23;18.48;;;;;;;5.57;51.89;102253.31;5054981;28;20055;-46
2022/03/10 03:12:48;;;;;;;28.33;18.25;;;;;;;5.57;51.85;102255.19;5071205;28;20039;-46
2022/03/10 03:15:16;;;;;;;28.88;17.67;;;;;;;5.57;51.97;102257.88;5073212;28;20462;-42
2022/03/10 03:17:47;;;;;;;24.23;18.20;;;;;;;5.55;52.00;102252.66;5066292;28;20151;-45
2022/03/10 03:20:15;;;;;;;27.35;18.02;;;;;;;5.52;51.81;102248.50;5053155;28;20041;-48
2022/03/10 03:22:44;;;;;;;25.92;18.17;;;;;;;5.49;52.08;102246.19;5052846;28;20048;-46
2022/03/10 03:25:17;;;;;;;30.02;18.65;;;;;;;5.48;52.20;102249.94;5054176;28;20044;-45
2022/03/10 03:27:46;;;;;;;25.42;17.08;;;;;;;5.48;52.29;102254.50;5038041;28;20037;-45
2022/03/10 03:30:14;;;;;;;32.58;18.20;;;;;;;5.47;52.23;102250.13;5072383;28;20044;-48
2022/03/10 03:32:42;;;;;;;26.70;17.80;;;;;;;5.44;52.35;102256.78;5071471;28;20067;-45
2022/03/10 03:35:10;;;;;;;28.92;17.92;;;;;;;5.43;52.35;102263.19;5072528;28;20036;-47
2022/03/10 03:37:38;;;;;;;28.25;18.25;;;;;;;5.43;52.34;102259.66;5070042;28;20406;-47
2022/03/10 03:40:07;;;;;;;32.47;19.23;;;;;;;5.40;52.48;102266.31;5072964;28;20076;-46
2022/03/10 03:42:35;;;;;;;33.20;18.70;;;;;;;5.38;52.54;102262.13;5054986;28;20589;-47
2022/03/10 03:45:04;;;;;;;28.58;18.20;;;;;;;5.38;52.30;102265.66;5054959;28;20036;-46
2022/03/10 03:47:32;;;;;;;27.55;17.65;;;;;;;5.37;52.47;102264.00;5037186;28;20522;-47
2022/03/10 03:50:00;;;;;;;29.45;17.80;;;;;;;5.39;52.42;102261.94;5053618;28;20056;-45
2022/03/10 03:52:27;;;;;;;25.67;17.30;;;;;;;5.39;52.47;102264.66;5052637;28;20075;-47
2022/03/10 03:54:55;;;;;;;24.55;17.00;;;;;;;5.38;52.48;102271.06;5052949;28;20063;-45
2022/03/10 03:57:23;;;;;;;27.45;17.83;;;;;;;5.36;52.64;102267.72;5053975;28;20041;-45
2022/03/10 03:59:50;;;;;;;25.48;17.77;;;;;;;5.35;52.70;102274.19;5054720;28;20044;-47
2022/03/10 04:02:18;;;;;;;27.33;17.48;;;;;;;5.30;52.37;102274.75;5070730;28;20398;-47
2022/03/10 04:04:47;;;;;;;25.55;17.85;;;;;;;5.27;52.84;102279.75;5072117;28;20083;-47
2022/03/10 04:07:15;;;;;;;26.83;17.55;;;;;;;5.24;53.04;102280.13;5036714;28;20033;-47
2022/03/10 04:09:43;;;;;;;31.67;17.88;;;;;;;5.19;52.79;102283.41;5072601;28;20163;-46
2022/03/10 04:12:11;;;;;;;25.23;17.13;;;;;;;5.13;53.14;102285.03;5072740;28;20380;-46
2022/03/10 04:14:38;;;;;;;28.92;17.48;;;;;;;5.13;52.78;102284.19;5059880;28;20087;-47
2022/03/10 04:17:06;;;;;;;26.65;17.92;;;;;;;5.12;53.19;102285.22;5052816;28;20049;-47
2022/03/10 04:19:34;;;;;;;26.50;17.63;;;;;;;5.16;53.33;102288.38;5052496;28;20131;-47
2022/03/10 04:22:03;;;;;;;26.80;17.33;;;;;;;5.16;53.25;102282.97;5037287;28;20052;-45
2022/03/10 04:24:31;;;;;;;24.17;17.90;;;;;;;5.20;53.50;102289.66;5038914;28;20406;-47
2022/03/10 04:26:58;;;;;;;24.13;17.23;;;;;;;5.22;52.93;102284.88;5056806;28;20052;-45
2022/03/10 04:29:26;;;;;;;24.48;17.63;;;;;;;5.21;53.03;102288.63;5055968;28;20060;-45
2022/03/10 04:31:54;;;;;;;22.77;16.90;;;;;;;5.19;53.13;102286.09;5055870;28;20041;-44
2022/03/10 04:34:21;;;;;;;25.83;17.60;;;;;;;5.17;53.02;102277.38;5056386;28;20067;-47
2022/03/10 04:36:49;;;;;;;24.98;16.60;;;;;;;5.15;53.10;102281.28;5061072;28;20039;-47
2022/03/10 04:39:17;;;;;;;24.52;17.10;;;;;;;5.13;53.25;102276.91;5073781;28;20044;-47
2022/03/10 04:41:44;;;;;;;22.92;17.70;;;;;;;5.12;53.23;102287.91;5075792;28;20049;-47
2022/03/10 04:44:12;;;;;;;25.35;17.77;;;;;;;5.09;53.37;102282.91;5075613;28;20059;-45
2022/03/10 04:46:39;;;;;;;23.58;16.48;;;;;;;5.05;53.50;102285.19;5075863;28;20497;-46
2022/03/10 04:49:08;;;;;;;26.65;17.58;;;;;;;5.01;53.46;102286.59;5071454;28;20541;-46
2022/03/10 04:51:36;;;;;;;25.85;17.80;;;;;;;4.98;53.66;102297.78;5056799;28;20033;-46
2022/03/10 04:54:04;;;;;;;25.55;17.33;;;;;;;4.98;53.73;102292.41;5055845;28;20045;-47
2022/03/10 04:56:31;;;;;;;25.90;17.77;;;;;;;4.98;53.55;102294.22;5055764;28;20045;-46
2022/03/10 04:58:59;;;;;;;23.33;17.50;;;;;;;4.98;53.41;102297.78;5055423;28;20045;-47
2022/03/10 05:01:29;;;;;;;25.73;17.50;;;;;;;4.99;53.21;102290.53;5059285;28;20041;-45
2022/03/10 05:03:58;;;;;;;30.02;17.55;;;;;;;4.95;53.67;102298.16;5073515;28;20045;-45
2022/03/10 05:06:27;;;;;;;24.92;18.42;;;;;;;4.93;53.55;102289.44;5075608;28;20044;-45
2022/03/10 05:08:54;;;;;;;27.52;18.17;;;;;;;4.93;53.87;102288.59;5075548;28;20076;-45
2022/03/10 05:11:22;;;;;;;25.42;17.40;;;;;;;4.93;53.96;102288.59;5052918;28;20506;-46
2022/03/10 05:13:55;;;;;;;26.25;18.02;;;;;;;4.94;53.62;102285.69;5056286;28;20063;-45
2022/03/10 05:16:22;;;;;;;27.00;18.02;;;;;;;4.91;53.48;102286.94;5057542;28;20045;-45
2022/03/10 05:18:50;;;;;;;25.65;18.35;;;;;;;4.89;53.73;102293.56;5057508;28;20051;-47
2022/03/10 05:21:18;;;;;;;25.15;17.50;;;;;;;4.86;53.73;102293.94;5069874;28;20049;-46
2022/03/10 05:23:46;;;;;;;28.20;18.45;;;;;;;4.86;54.09;102293.94;5055967;28;20045;-47
2022/03/10 05:26:13;;;;;;;24.52;17.45;;;;;;;4.85;53.46;102297.66;5055104;28;20045;-46
2022/03/10 05:28:41;;;;;;;26.13;17.92;;;;;;;4.84;53.94;102304.94;5074439;28;20045;-45
2022/03/10 05:31:08;;;;;;;26.83;17.50;;;;;;;4.83;53.82;102295.13;5068947;28;20041;-47
2022/03/10 05:33:39;;;;;;;25.90;17.10;;;;;;;4.81;53.75;102291.81;5054901;28;20055;-45
2022/03/10 05:36:06;;;;;;;28.48;18.08;;;;;;;4.79;53.85;102298.44;5054673;28;20056;-43
2022/03/10 05:38:34;;;;;;;26.77;17.50;;;;;;;4.78;53.87;102302.16;5054802;28;20076;-47
2022/03/10 05:41:03;;;;;;;27.48;17.95;;;;;;;4.78;53.95;102296.75;5055750;28;20055;-48
2022/03/10 05:43:32;;;;;;;25.25;16.83;;;;;;;4.77;53.90;102295.09;5054522;28;20047;-45
2022/03/10 05:45:59;;;;;;;30.15;17.38;;;;;;;4.75;53.64;102302.56;5036842;28;20044;-48
2022/03/10 05:48:30;;;;;;;24.02;17.00;;;;;;;4.72;53.89;102297.56;5054625;28;20037;-49
2022/03/10 05:50:58;;;;;;;28.75;17.80;;;;;;;4.69;54.19;102294.19;5042712;28;20127;-45
2022/03/10 05:53:26;;;;;;;27.10;18.38;;;;;;;4.69;53.91;102294.19;5072967;28;20041;-46
2022/03/10 05:55:54;;;;;;;34.45;18.63;;;;;;;4.65;54.36;102287.50;5074510;28;20070;-47
2022/03/10 05:58:22;;;;;;;25.73;18.17;;;;;;;4.64;53.97;102293.94;5055133;28;20043;-46
2022/03/10 06:00:49;;;;;;;28.05;18.35;;;;;;;4.64;54.18;102296.66;5055189;28;20049;-44
2022/03/10 06:03:20;;;;;;;26.52;17.85;;;;;;;4.62;54.23;102298.69;5054667;28;20049;-47
2022/03/10 06:05:55;;;;;;;25.73;18.33;;;;;;;4.61;53.89;102294.31;5054574;28;20122;-49
2022/03/10 06:08:24;;;;;;;24.85;17.08;;;;;;;4.58;54.40;102294.69;5054330;28;20131;-47
2022/03/10 06:10:51;;;;;;;34.65;18.15;;;;;;;4.57;53.87;102295.75;5061455;28;20478;-52
2022/03/10 06:13:19;;;;;;;27.70;17.13;;;;;;;4.55;54.01;102297.78;5073727;28;20106;-46
2022/03/10 06:15:47;;;;;;;29.73;22.17;;;;;;;4.54;53.93;102292.56;5073948;28;20040;-47
2022/03/10 06:18:15;;;;;;;29.33;21.48;;;;;;;4.50;54.35;102300.22;5054985;28;20036;-44
2022/03/10 06:20:43;;;;;;;25.02;18.10;;;;;;;4.48;53.86;102302.28;5054946;28;20047;-48
2022/03/10 06:23:11;;;;;;;26.55;17.75;;;;;;;4.48;54.18;102304.97;5036183;28;20033;-47
2022/03/10 06:25:39;;;;;;;27.88;18.58;;;;;;;4.50;54.10;102308.34;5053689;28;20443;-46
2022/03/10 06:28:09;;;;;;;23.83;17.42;;;;;;;4.52;54.06;102308.94;5053535;28;20590;-48
2022/03/10 06:30:36;;;;;;;28.60;18.98;;;;;;;4.52;53.17;102308.94;5063705;28;20132;-42
2022/03/10 06:33:04;;;;;;;27.70;18.17;;;;;;;4.46;53.38;102315.97;5053624;28;20140;-44
2022/03/10 06:35:32;;;;;;;25.23;17.05;;;;;;;4.39;54.19;102315.03;5053673;28;20497;-44
2022/03/10 06:37:59;;;;;;;25.77;18.00;;;;;;;4.39;54.09;102316.91;5054391;28;20488;-47
2022/03/10 06:40:27;;;;;;;28.10;17.73;;;;;;;4.38;53.66;102313.38;5054515;28;20411;-46
2022/03/10 06:42:55;;;;;;;24.83;17.75;;;;;;;4.36;54.13;102314.59;5053304;28;20438;-45
2022/03/10 06:45:23;;;;;;;29.50;19.00;;;;;;;4.31;54.32;102317.88;5052734;28;20407;-46
2022/03/10 06:47:50;;;;;;;29.02;18.60;;;;;;;4.33;54.05;102323.06;5060953;28;20041;-46
2022/03/10 06:50:18;;;;;;;29.48;18.48;;;;;;;4.32;54.09;102321.41;5072424;28;20051;-45
2022/03/10 06:52:46;;;;;;;27.73;18.83;;;;;;;4.30;54.23;102320.75;5073150;28;20052;-46
2022/03/10 06:55:16;;;;;;;30.88;18.65;;;;;;;4.28;53.98;102318.22;5055276;28;20123;-46
2022/03/10 06:57:44;;;;;;;28.98;18.13;;;;;;;4.33;54.37;102323.91;5072270;28;20044;-45
2022/03/10 07:00:12;;;;;;;32.00;18.17;;;;;;;4.38;54.23;102328.75;5070113;28;20041;-43
2022/03/10 07:02:39;;;;;;;27.15;18.73;;;;;;;4.42;54.01;102330.03;5052872;28;20132;-46
2022/03/10 07:05:08;;;;;;;29.02;18.70;;;;;;;4.43;53.51;102331.72;4354508;28;10000570;-44
2022/03/10 07:07:36;;;;;;;31.88;19.33;;;;;;;4.43;53.63;102327.16;5049570;28;20041;-46
2022/03/10 07:10:04;;;;;;;29.20;20.20;;;;;;;4.45;54.07;102324.25;5057478;28;20415;-46
2022/03/10 07:12:39;;;;;;;28.63;19.63;;;;;;;4.46;53.88;102331.31;5055445;28;20041;-46
2022/03/10 07:15:08;;;;;;;26.05;17.35;;;;;;;4.51;54.56;102333.44;5049339;28;20642;-45
2022/03/10 07:17:36;;;;;;;35.33;19.55;;;;;;;4.55;55.08;102326.66;5052250;28;20048;-44
2022/03/10 07:20:04;;;;;;;31.42;19.02;;;;;;;4.55;53.88;102335.59;5066595;28;20041;-47
2022/03/10 07:22:32;;;;;;;32.35;19.92;;;;;;;4.52;53.79;102335.94;5031488;28;20108;-46
2022/03/10 07:24:59;;;;;;;29.90;20.00;;;;;;;4.52;54.02;102330.53;5049267;28;20041;-47
2022/03/10 07:27:27;;;;;;;29.83;19.55;;;;;;;4.57;54.11;102332.66;5032009;28;20384;-44
2022/03/10 07:29:55;;;;;;;25.33;17.42;;;;;;;4.66;54.74;102332.34;5060434;28;20041;-43
2022/03/10 07:32:26;;;;;;;29.88;19.55;;;;;;;4.68;53.36;102335.72;5072372;28;20055;-45
2022/03/10 07:34:53;;;;;;;31.20;19.38;;;;;;;4.68;53.58;102329.47;5055299;28;20136;-47
2022/03/10 07:37:21;;;;;;;28.63;19.52;;;;;;;4.72;53.53;102332.66;5072537;28;20088;-45
2022/03/10 07:39:49;;;;;;;28.05;18.90;;;;;;;4.76;53.18;102323.13;5070898;28;20431;-46
2022/03/10 07:42:16;;;;;;;28.98;19.42;;;;;;;4.80;52.87;102333.34;5072747;28;20059;-47
2022/03/10 07:44:44;;;;;;;30.80;18.23;;;;;;;4.86;53.58;102329.06;5072487;28;20044;-43
2022/03/10 07:47:11;;;;;;;29.05;19.08;;;;;;;4.90;53.17;102333.03;5072582;28;20140;-46
2022/03/10 07:49:39;;;;;;;33.85;19.13;;;;;;;4.98;53.39;102334.75;5064364;28;20029;-44
2022/03/10 07:52:07;;;;;;;27.10;17.13;;;;;;;5.05;53.12;102323.00;5052690;28;20041;-48
2022/03/10 07:54:34;;;;;;;32.55;17.92;;;;;;;5.12;53.19;102320.34;5052425;28;20041;-47
2022/03/10 07:57:04;;;;;;;27.85;18.42;;;;;;;5.18;52.65;102324.97;5055305;28;20052;-48
2022/03/10 07:59:31;;;;;;;27.80;17.33;;;;;;;5.20;52.89;102322.09;5043204;28;20036;-48
2022/03/10 08:01:59;;;;;;;30.17;18.33;;;;;;;5.23;52.52;102319.81;5042068;28;20055;-47
2022/03/10 08:04:27;;;;;;;27.30;18.08;;;;;;;5.26;52.36;102321.28;5076177;28;20060;-45
2022/03/10 08:06:54;;;;;;;25.13;17.02;;;;;;;5.27;52.75;102328.38;5076217;28;20036;-47
2022/03/10 08:09:22;;;;;;;27.58;19.02;;;;;;;5.30;52.72;102322.56;5067776;28;20048;-46
2022/03/10 08:11:50;;;;;;;29.85;17.70;;;;;;;5.32;52.25;102328.63;5056306;28;20049;-42
2022/03/10 08:14:17;;;;;;;25.95;18.48;;;;;;;5.38;52.92;102327.00;5056159;28;20037;-49
2022/03/10 08:16:45;;;;;;;27.25;18.10;;;;;;;5.42;52.73;102326.41;5056461;28;20045;-45
2022/03/10 08:19:13;;;;;;;25.85;18.42;;;;;;;5.47;52.78;102329.34;5041118;28;20132;-45
2022/03/10 08:21:40;;;;;;;31.10;18.75;;;;;;;5.48;53.10;102332.88;5056346;28;20036;-45
2022/03/10 08:24:11;;;;;;;26.23;19.40;;;;;;;5.49;52.95;102330.00;5056163;28;20091;-46
2022/03/10 08:26:39;;;;;;;28.98;17.90;;;;;;;5.53;52.89;102325.88;5055980;28;20055;-46
2022/03/10 08:29:07;;;;;;;29.55;20.27;;;;;;;5.57;52.87;102328.19;5064081;28;20033;-46
2022/03/10 08:31:34;;;;;;;29.67;18.63;;;;;;;5.60;52.96;102319.66;5075918;28;20047;-48
2022/03/10 08:34:02;;;;;;;26.88;18.33;;;;;;;5.68;53.25;102319.53;5075981;28;20453;-46
2022/03/10 08:36:31;;;;;;;30.55;19.95;;;;;;;5.70;53.41;102321.00;5064509;28;20096;-47
2022/03/10 08:38:59;;;;;;;25.90;18.08;;;;;;;5.74;53.25;102310.59;5054151;28;20487;-46
2022/03/10 08:41:26;;;;;;;26.52;18.98;;;;;;;5.76;53.21;102312.06;5055818;28;20050;-46
2022/03/10 08:43:54;;;;;;;27.35;19.33;;;;;;;5.82;53.22;102310.47;5055699;28;20044;-47
2022/03/10 08:46:22;;;;;;;29.48;19.20;;;;;;;5.90;53.08;102312.16;5056687;28;20041;-46
2022/03/10 08:48:49;;;;;;;30.08;19.27;;;;;;;5.95;52.70;102310.53;5063137;28;20502;-46
2022/03/10 08:51:17;;;;;;;28.42;20.00;;;;;;;5.98;52.83;102312.84;5075613;28;20044;-46
2022/03/10 08:53:44;;;;;;;32.35;20.00;;;;;;;5.99;52.97;102313.69;5075608;28;20063;-47
2022/03/10 08:56:12;;;;;;;29.55;19.83;;;;;;;6.04;53.13;102313.06;5074820;28;20040;-47
2022/03/10 08:58:40;;;;;;;30.75;20.00;;;;;;;6.08;53.17;102308.94;5073728;28;20037;-44
2022/03/10 09:01:07;;;;;;;27.80;18.13;;;;;;;6.13;53.34;102311.88;5075692;28;20076;-49
2022/03/10 09:03:50;;;;;;;31.08;20.27;;;;;;;6.15;53.34;102310.63;5075086;28;20561;-48
2022/03/10 09:06:18;;;;;;;30.75;19.85;;;;;;;6.21;53.46;102300.06;5042927;28;20091;-46
2022/03/10 09:08:46;;;;;;;31.15;20.48;;;;;;;6.25;53.46;102293.19;5055465;28;20041;-48
2022/03/10 09:11:14;;;;;;;30.20;20.40;;;;;;;6.28;53.40;102304.44;5055141;28;20041;-50
2022/03/10 09:13:44;;;;;;;32.50;21.58;;;;;;;6.30;53.30;102294.25;5055082;28;20043;-46
2022/03/10 09:16:11;;;;;;;35.35;22.20;;;;;;;6.33;53.33;102290.31;5066471;28;20513;-49
2022/03/10 09:18:41;;;;;;;35.00;21.13;;;;;;;6.36;53.31;102290.72;5073476;28;20056;-46
2022/03/10 09:21:08;;;;;;;31.42;21.25;;;;;;;6.39;53.53;102290.31;5074991;28;20071;-47
2022/03/10 09:23:36;;;;;;;33.20;20.55;;;;;;;6.43;53.58;102295.34;5077567;28;20051;-50
2022/03/10 09:26:04;;;;;;;33.95;21.38;;;;;;;6.45;53.46;102282.44;5057760;28;20563;-46
2022/03/10 09:28:32;;;;;;;30.33;20.42;;;;;;;6.47;53.58;102280.34;5053082;28;20136;-46
2022/03/10 09:31:00;;;;;;;28.55;20.63;;;;;;;6.52;54.20;102284.13;5037202;28;20044;-47
2022/03/10 09:33:28;;;;;;;34.40;21.00;;;;;;;6.58;54.28;102277.03;5047724;28;20513;-46
2022/03/10 09:35:56;;;;;;;27.73;19.90;;;;;;;6.67;54.22;102274.97;5054720;28;20486;-45
2022/03/10 09:38:23;;;;;;;32.58;21.00;;;;;;;6.73;54.79;102272.25;5059589;28;20041;-45
2022/03/10 09:40:54;;;;;;;28.20;19.58;;;;;;;6.79;53.80;102271.44;5074894;28;20135;-45
2022/03/10 09:43:23;;;;;;;30.77;20.17;;;;;;;6.81;54.53;102269.34;5040656;28;20564;-44
2022/03/10 09:45:51;;;;;;;29.80;19.63;;;;;;;6.91;54.67;102270.84;5074248;28;20047;-44
2022/03/10 09:48:19;;;;;;;31.27;20.75;;;;;;;6.97;54.60;102273.50;5064744;28;20047;-45
2022/03/10 09:50:48;;;;;;;32.78;20.75;;;;;;;7.02;54.46;102272.91;5054525;28;20045;-47
2022/03/10 09:53:16;;;;;;;34.78;20.65;;;;;;;7.08;55.72;102273.97;5054433;28;20041;-44
2022/03/10 09:55:44;;;;;;;35.40;19.88;;;;;;;7.17;55.48;102270.00;5054302;28;20044;-46
2022/03/10 09:58:12;;;;;;;31.60;21.88;;;;;;;7.23;54.86;102264.53;5037996;28;20053;-47
2022/03/10 10:00:40;;;;;;;34.13;20.50;;;;;;;7.29;53.72;102267.47;5054434;28;20056;-48
2022/03/10 10:03:08;;;;;;;34.05;21.08;;;;;;;7.40;52.99;102253.25;5053823;28;20048;-47
2022/03/10 10:05:40;;;;;;;29.42;17.05;;;;;;;7.48;52.47;102258.47;5054358;28;20076;-48
2022/03/10 10:08:17;;;;;;;29.85;18.25;;;;;;;7.52;52.88;102248.84;5030602;28;20215;-47
2022/03/10 10:10:47;;;;;;;31.85;20.75;;;;;;;7.52;52.08;102257.00;5074248;28;20052;-47
2022/03/10 10:13:27;;;;;;;31.15;21.23;;;;;;;7.57;52.01;102262.59;5056540;28;20086;-48
2022/03/10 10:16:14;;;;;;;31.98;21.33;;;;;;;7.57;52.69;102259.91;5074028;28;20047;-47
2022/03/10 10:18:46;;;;;;;31.80;22.05;;;;;;;7.58;52.25;102267.00;5061384;28;20128;-46
2022/03/10 10:21:20;;;;;;;32.20;20.52;;;;;;;7.61;52.19;102255.72;5036695;28;20084;-44
2022/03/10 10:23:50;;;;;;;34.20;22.40;;;;;;;7.63;52.24;102256.34;5036201;28;20041;-46
2022/03/10 10:26:20;;;;;;;36.63;22.02;;;;;;;7.66;53.00;102257.78;5053955;28;20049;-46
2022/03/10 10:28:50;;;;;;;32.78;22.63;;;;;;;7.72;53.30;102256.97;5054650;28;20093;-48
2022/03/10 10:31:20;;;;;;;35.03;22.10;;;;;;;7.76;53.15;102246.50;5073552;28;20048;-47
2022/03/10 10:34:03;;;;;;;30.60;20.25;;;;;;;7.81;52.71;102249.41;5073710;28;20501;-46
2022/03/10 10:36:32;;;;;;;29.13;18.42;;;;;;;7.87;52.79;102246.66;5073595;28;20040;-49
2022/03/10 10:39:11;;;;;;;32.30;21.75;;;;;;;7.92;53.21;102251.44;5057629;28;20518;-46
2022/03/10 10:41:40;;;;;;;34.13;21.92;;;;;;;8.01;53.47;102235.75;5063376;28;20060;-42
2022/03/10 10:44:12;;;;;;;31.42;20.88;;;;;;;8.06;53.25;102236.78;5054938;28;20127;-44
2022/03/10 10:46:41;;;;;;;38.13;21.38;;;;;;;8.10;53.70;102232.59;5070894;28;20120;-42
2022/03/10 10:49:11;;;;;;;36.42;22.83;;;;;;;8.19;53.15;102230.44;5037088;28;20115;-42
2022/03/10 10:51:43;;;;;;;34.33;21.80;;;;;;;8.23;53.45;102231.69;5070424;28;20123;-46
2022/03/10 10:54:24;;;;;;;33.63;22.63;;;;;;;8.30;53.57;102234.34;5072935;28;20406;-45
2022/03/10 10:56:57;;;;;;;34.47;21.25;;;;;;;8.34;53.86;102227.41;5053587;28;20406;-43
2022/03/10 10:59:39;;;;;;;32.55;21.42;;;;;;;8.43;53.67;102219.88;5053497;28;20045;-47
2022/03/10 11:02:17;;;;;;;30.95;21.27;;;;;;;8.67;53.60;102210.94;5054371;28;20052;-49
2022/03/10 11:04:47;;;;;;;34.33;20.98;;;;;;;8.72;53.63;102216.53;5048061;28;20478;-46
2022/03/10 11:07:19;;;;;;;29.20;18.95;;;;;;;8.81;53.09;102205.41;5052816;28;20037;-42
2022/03/10 11:09:48;;;;;;;29.10;18.45;;;;;;;8.86;52.87;102214.53;5053050;28;20076;-42
2022/03/10 11:12:17;;;;;;;31.02;20.30;;;;;;;8.87;53.70;102215.34;5036511;28;20052;-47
2022/03/10 11:14:46;;;;;;;28.73;19.10;;;;;;;8.82;53.43;102213.31;5036271;28;20078;-46
2022/03/10 11:17:17;;;;;;;29.15;19.17;;;;;;;8.78;52.84;102208.53;5069675;28;20037;-46
2022/03/10 11:19:50;;;;;;;32.17;19.95;;;;;;;8.80;53.03;102209.97;5072963;28;20439;-48
2022/03/10 11:22:28;;;;;;;30.73;19.45;;;;;;;8.90;54.14;102210.31;5069653;28;20107;-47
2022/03/10 11:25:33;;;;;;;29.40;19.55;;;;;;;9.01;52.90;102200.59;5050671;28;20048;-47
2022/03/10 11:28:14;;;;;;;28.60;18.70;;;;;;;9.12;54.28;102205.31;5068374;28;20048;-48
2022/03/10 11:31:06;;;;;;;30.85;20.63;;;;;;;9.15;52.64;102199.41;5055221;28;20131;-45